sensor_id;sensor_type;location;lat;lon;timestamp;P1;durP1;ratioP1;P2;durP2;ratioP2
9422;SDS011;4750;49.506;10.400;2022-08-03T00:01:41;2.87;;;2.13;;
9422;SDS011;4750;49.506;10.400;2022-08-03T00:04:26;1.77;;;1.67;;
9422;SDS011;4750;49.506;10.400;2022-08-03T00:07:10;5.33;;;2.27;;
9422;SDS011;4750;49.506;10.400;2022-08-03T00:09:54;6.27;;;2.17;;
9422;SDS011;4750;49.506;10.400;2022-08-03T00:12:38;3.43;;;1.80;;
9422;SDS011;4750;49.506;10.400;2022-08-03T00:15:22;1.97;;;1.87;;
9422;SDS011;4750;49.506;10.400;2022-08-03T00:18:06;1.80;;;1.70;;
9422;SDS011;4750;49.506;10.400;2022-08-03T00:20:50;1.90;;;1.80;;
9422;SDS011;4750;49.506;10.400;2022-08-03T00:23:34;3.63;;;1.80;;
9422;SDS011;4750;49.506;10.400;2022-08-03T00:26:19;3.53;;;2.00;;
9422;SDS011;4750;49.506;10.400;2022-08-03T00:29:04;7.63;;;2.10;;
9422;SDS011;4750;49.506;10.400;2022-08-03T00:31:48;2.13;;;1.93;;
9422;SDS011;4750;49.506;10.400;2022-08-03T00:34:32;2.13;;;2.03;;
9422;SDS011;4750;49.506;10.400;2022-08-03T00:37:16;2.10;;;2.00;;
9422;SDS011;4750;49.506;10.400;2022-08-03T00:39:59;2.20;;;1.93;;
9422;SDS011;4750;49.506;10.400;2022-08-03T00:42:51;2.80;;;2.20;;
9422;SDS011;4750;49.506;10.400;2022-08-03T00:45:40;2.30;;;1.93;;
9422;SDS011;4750;49.506;10.400;2022-08-03T00:48:25;4.40;;;2.20;;
9422;SDS011;4750;49.506;10.400;2022-08-03T00:51:09;4.40;;;2.20;;
9422;SDS011;4750;49.506;10.400;2022-08-03T00:53:53;2.07;;;1.97;;
9422;SDS011;4750;49.506;10.400;2022-08-03T00:56:37;2.10;;;2.00;;
9422;SDS011;4750;49.506;10.400;2022-08-03T00:59:21;2.37;;;2.17;;
9422;SDS011;4750;49.506;10.400;2022-08-03T01:02:06;3.53;;;2.10;;
9422;SDS011;4750;49.506;10.400;2022-08-03T01:04:51;8.97;;;2.30;;
9422;SDS011;4750;49.506;10.400;2022-08-03T01:10:57;2.40;;;2.20;;
9422;SDS011;4750;49.506;10.400;2022-08-03T01:13:56;2.53;;;2.30;;
9422;SDS011;4750;49.506;10.400;2022-08-03T01:20:02;2.43;;;2.20;;
9422;SDS011;4750;49.506;10.400;2022-08-03T01:32:16;4.30;;;2.50;;
9422;SDS011;4750;49.506;10.400;2022-08-03T01:35:04;3.63;;;2.47;;
9422;SDS011;4750;49.506;10.400;2022-08-03T01:37:59;4.43;;;2.70;;
9422;SDS011;4750;49.506;10.400;2022-08-03T01:40:46;3.27;;;2.70;;
9422;SDS011;4750;49.506;10.400;2022-08-03T01:43:34;5.60;;;3.00;;
9422;SDS011;4750;49.506;10.400;2022-08-03T01:46:19;2.83;;;2.60;;
9422;SDS011;4750;49.506;10.400;2022-08-03T01:49:06;5.53;;;2.80;;
9422;SDS011;4750;49.506;10.400;2022-08-03T01:51:53;2.70;;;2.50;;
9422;SDS011;4750;49.506;10.400;2022-08-03T01:54:42;3.90;;;2.90;;
9422;SDS011;4750;49.506;10.400;2022-08-03T01:57:28;3.77;;;3.07;;
9422;SDS011;4750;49.506;10.400;2022-08-03T02:00:13;3.00;;;2.70;;
9422;SDS011;4750;49.506;10.400;2022-08-03T02:03:00;2.70;;;2.30;;
9422;SDS011;4750;49.506;10.400;2022-08-03T02:05:47;3.73;;;2.70;;
9422;SDS011;4750;49.506;10.400;2022-08-03T02:08:32;5.13;;;2.73;;
9422;SDS011;4750;49.506;10.400;2022-08-03T02:11:17;3.83;;;2.63;;
9422;SDS011;4750;49.506;10.400;2022-08-03T02:14:01;4.97;;;3.10;;
9422;SDS011;4750;49.506;10.400;2022-08-03T02:16:47;3.13;;;2.83;;
9422;SDS011;4750;49.506;10.400;2022-08-03T02:19:32;3.47;;;3.17;;
9422;SDS011;4750;49.506;10.400;2022-08-03T02:22:18;2.80;;;2.60;;
9422;SDS011;4750;49.506;10.400;2022-08-03T02:25:02;3.10;;;2.90;;
9422;SDS011;4750;49.506;10.400;2022-08-03T02:27:50;2.70;;;2.50;;
9422;SDS011;4750;49.506;10.400;2022-08-03T02:30:38;4.13;;;2.70;;
9422;SDS011;4750;49.506;10.400;2022-08-03T02:33:43;2.90;;;2.70;;
9422;SDS011;4750;49.506;10.400;2022-08-03T02:36:32;3.27;;;2.97;;
9422;SDS011;4750;49.506;10.400;2022-08-03T02:39:20;3.73;;;3.10;;
9422;SDS011;4750;49.506;10.400;2022-08-03T02:42:08;4.40;;;2.77;;
9422;SDS011;4750;49.506;10.400;2022-08-03T02:44:55;3.73;;;2.73;;
9422;SDS011;4750;49.506;10.400;2022-08-03T02:47:42;3.07;;;2.87;;
9422;SDS011;4750;49.506;10.400;2022-08-03T02:50:29;3.40;;;2.77;;
9422;SDS011;4750;49.506;10.400;2022-08-03T02:53:14;3.30;;;3.00;;
9422;SDS011;4750;49.506;10.400;2022-08-03T02:55:59;4.20;;;3.10;;
9422;SDS011;4750;49.506;10.400;2022-08-03T02:58:45;3.73;;;2.40;;
9422;SDS011;4750;49.506;10.400;2022-08-03T03:01:32;3.77;;;2.50;;
9422;SDS011;4750;49.506;10.400;2022-08-03T03:04:16;2.47;;;2.27;;
9422;SDS011;4750;49.506;10.400;2022-08-03T03:07:01;2.60;;;2.40;;
9422;SDS011;4750;49.506;10.400;2022-08-03T03:09:46;5.50;;;2.10;;
9422;SDS011;4750;49.506;10.400;2022-08-03T03:12:32;3.23;;;2.30;;
9422;SDS011;4750;49.506;10.400;2022-08-03T03:15:16;2.50;;;2.30;;
9422;SDS011;4750;49.506;10.400;2022-08-03T03:18:00;2.20;;;2.00;;
9422;SDS011;4750;49.506;10.400;2022-08-03T03:20:45;4.60;;;2.47;;
9422;SDS011;4750;49.506;10.400;2022-08-03T03:23:31;2.43;;;2.23;;
9422;SDS011;4750;49.506;10.400;2022-08-03T03:26:19;3.77;;;2.30;;
9422;SDS011;4750;49.506;10.400;2022-08-03T03:29:05;2.33;;;2.13;;
9422;SDS011;4750;49.506;10.400;2022-08-03T03:31:50;3.00;;;2.50;;
9422;SDS011;4750;49.506;10.400;2022-08-03T03:34:34;2.53;;;2.33;;
9422;SDS011;4750;49.506;10.400;2022-08-03T03:37:19;2.77;;;2.53;;
9422;SDS011;4750;49.506;10.400;2022-08-03T03:40:03;2.57;;;2.37;;
9422;SDS011;4750;49.506;10.400;2022-08-03T03:42:48;2.87;;;2.60;;
9422;SDS011;4750;49.506;10.400;2022-08-03T03:45:33;2.73;;;2.53;;
9422;SDS011;4750;49.506;10.400;2022-08-03T03:48:18;2.57;;;2.37;;
9422;SDS011;4750;49.506;10.400;2022-08-03T03:51:02;2.23;;;1.90;;
9422;SDS011;4750;49.506;10.400;2022-08-03T03:53:53;5.87;;;2.70;;
9422;SDS011;4750;49.506;10.400;2022-08-03T03:56:44;3.27;;;2.60;;
9422;SDS011;4750;49.506;10.400;2022-08-03T03:59:29;2.97;;;2.67;;
9422;SDS011;4750;49.506;10.400;2022-08-03T04:02:13;4.97;;;2.97;;
9422;SDS011;4750;49.506;10.400;2022-08-03T04:04:56;2.60;;;2.40;;
9422;SDS011;4750;49.506;10.400;2022-08-03T04:08:00;2.90;;;2.60;;
9422;SDS011;4750;49.506;10.400;2022-08-03T04:14:11;4.37;;;2.57;;
9422;SDS011;4750;49.506;10.400;2022-08-03T04:17:01;8.27;;;3.00;;
9422;SDS011;4750;49.506;10.400;2022-08-03T04:19:48;3.37;;;2.40;;
9422;SDS011;4750;49.506;10.400;2022-08-03T04:22:34;8.13;;;2.70;;
9422;SDS011;4750;49.506;10.400;2022-08-03T04:25:22;4.53;;;2.70;;
9422;SDS011;4750;49.506;10.400;2022-08-03T04:28:10;5.63;;;2.60;;
9422;SDS011;4750;49.506;10.400;2022-08-03T04:30:54;3.00;;;2.70;;
9422;SDS011;4750;49.506;10.400;2022-08-03T04:33:39;5.27;;;2.97;;
9422;SDS011;4750;49.506;10.400;2022-08-03T04:36:25;3.37;;;3.07;;
9422;SDS011;4750;49.506;10.400;2022-08-03T04:39:13;3.60;;;3.30;;
9422;SDS011;4750;49.506;10.400;2022-08-03T04:42:06;6.50;;;2.70;;
9422;SDS011;4750;49.506;10.400;2022-08-03T04:44:51;4.93;;;3.10;;
9422;SDS011;4750;49.506;10.400;2022-08-03T04:47:37;3.63;;;3.10;;
9422;SDS011;4750;49.506;10.400;2022-08-03T04:50:22;3.43;;;3.13;;
9422;SDS011;4750;49.506;10.400;2022-08-03T04:53:23;3.93;;;3.40;;
9422;SDS011;4750;49.506;10.400;2022-08-03T04:56:07;3.50;;;3.20;;
9422;SDS011;4750;49.506;10.400;2022-08-03T04:58:51;3.63;;;3.33;;
9422;SDS011;4750;49.506;10.400;2022-08-03T05:01:36;6.40;;;3.50;;
9422;SDS011;4750;49.506;10.400;2022-08-03T05:04:20;4.53;;;3.20;;
9422;SDS011;4750;49.506;10.400;2022-08-03T05:07:05;8.17;;;3.17;;
9422;SDS011;4750;49.506;10.400;2022-08-03T05:09:49;4.13;;;3.40;;
9422;SDS011;4750;49.506;10.400;2022-08-03T05:12:33;3.20;;;2.90;;
9422;SDS011;4750;49.506;10.400;2022-08-03T05:15:24;3.80;;;2.73;;
9422;SDS011;4750;49.506;10.400;2022-08-03T05:18:08;2.67;;;2.43;;
9422;SDS011;4750;49.506;10.400;2022-08-03T05:20:52;3.13;;;2.83;;
9422;SDS011;4750;49.506;10.400;2022-08-03T05:23:36;4.83;;;2.30;;
9422;SDS011;4750;49.506;10.400;2022-08-03T05:26:20;5.10;;;2.40;;
9422;SDS011;4750;49.506;10.400;2022-08-03T05:29:04;3.73;;;2.20;;
9422;SDS011;4750;49.506;10.400;2022-08-03T05:31:48;2.53;;;1.97;;
9422;SDS011;4750;49.506;10.400;2022-08-03T05:34:32;2.77;;;2.07;;
9422;SDS011;4750;49.506;10.400;2022-08-03T05:37:16;1.97;;;1.87;;
9422;SDS011;4750;49.506;10.400;2022-08-03T05:40:00;5.73;;;2.90;;
9422;SDS011;4750;49.506;10.400;2022-08-03T05:42:44;8.53;;;2.80;;
9422;SDS011;4750;49.506;10.400;2022-08-03T05:45:28;8.10;;;2.80;;
9422;SDS011;4750;49.506;10.400;2022-08-03T05:48:12;8.03;;;2.80;;
9422;SDS011;4750;49.506;10.400;2022-08-03T05:50:56;5.07;;;2.90;;
9422;SDS011;4750;49.506;10.400;2022-08-03T05:53:40;6.20;;;3.00;;
9422;SDS011;4750;49.506;10.400;2022-08-03T05:56:25;6.10;;;2.75;;
9422;SDS011;4750;49.506;10.400;2022-08-03T05:59:09;6.60;;;2.80;;
9422;SDS011;4750;49.506;10.400;2022-08-03T06:01:53;5.80;;;2.67;;
9422;SDS011;4750;49.506;10.400;2022-08-03T06:04:38;12.85;;;3.05;;
9422;SDS011;4750;49.506;10.400;2022-08-03T06:07:22;14.32;;;3.63;;
9422;SDS011;4750;49.506;10.400;2022-08-03T06:10:06;5.47;;;2.72;;
9422;SDS011;4750;49.506;10.400;2022-08-03T06:12:51;15.90;;;3.67;;
9422;SDS011;4750;49.506;10.400;2022-08-03T06:15:35;8.27;;;3.08;;
9422;SDS011;4750;49.506;10.400;2022-08-03T06:18:19;13.20;;;3.08;;
9422;SDS011;4750;49.506;10.400;2022-08-03T06:21:03;13.70;;;3.15;;
9422;SDS011;4750;49.506;10.400;2022-08-03T06:23:47;16.02;;;3.20;;
9422;SDS011;4750;49.506;10.400;2022-08-03T06:26:32;9.65;;;2.90;;
9422;SDS011;4750;49.506;10.400;2022-08-03T06:29:16;9.18;;;3.20;;
9422;SDS011;4750;49.506;10.400;2022-08-03T06:31:59;7.45;;;2.05;;
9422;SDS011;4750;49.506;10.400;2022-08-03T06:34:43;6.13;;;2.00;;
9422;SDS011;4750;49.506;10.400;2022-08-03T06:37:27;4.30;;;2.45;;
9422;SDS011;4750;49.506;10.400;2022-08-03T06:40:12;10.50;;;2.90;;
9422;SDS011;4750;49.506;10.400;2022-08-03T06:42:58;10.23;;;2.75;;
9422;SDS011;4750;49.506;10.400;2022-08-03T06:45:44;6.15;;;2.28;;
9422;SDS011;4750;49.506;10.400;2022-08-03T06:48:28;7.63;;;2.50;;
9422;SDS011;4750;49.506;10.400;2022-08-03T06:51:13;5.25;;;2.30;;
9422;SDS011;4750;49.506;10.400;2022-08-03T06:53:57;5.07;;;2.08;;
9422;SDS011;4750;49.506;10.400;2022-08-03T06:56:41;2.00;;;1.80;;
9422;SDS011;4750;49.506;10.400;2022-08-03T06:59:25;4.22;;;2.28;;
9422;SDS011;4750;49.506;10.400;2022-08-03T07:02:09;9.52;;;2.40;;
9422;SDS011;4750;49.506;10.400;2022-08-03T07:04:54;6.47;;;2.22;;
9422;SDS011;4750;49.506;10.400;2022-08-03T07:07:38;5.30;;;2.17;;
9422;SDS011;4750;49.506;10.400;2022-08-03T07:10:22;7.65;;;2.33;;
9422;SDS011;4750;49.506;10.400;2022-08-03T07:13:06;10.95;;;2.35;;
9422;SDS011;4750;49.506;10.400;2022-08-03T07:15:50;7.20;;;2.13;;
9422;SDS011;4750;49.506;10.400;2022-08-03T07:18:37;5.20;;;2.30;;
9422;SDS011;4750;49.506;10.400;2022-08-03T07:21:22;5.72;;;2.15;;
9422;SDS011;4750;49.506;10.400;2022-08-03T07:24:06;7.65;;;2.35;;
9422;SDS011;4750;49.506;10.400;2022-08-03T07:26:50;7.33;;;2.13;;
9422;SDS011;4750;49.506;10.400;2022-08-03T07:29:35;4.87;;;2.77;;
9422;SDS011;4750;49.506;10.400;2022-08-03T07:32:18;2.93;;;1.83;;
9422;SDS011;4750;49.506;10.400;2022-08-03T07:35:03;4.10;;;1.80;;
9422;SDS011;4750;49.506;10.400;2022-08-03T07:37:48;3.37;;;1.90;;
9422;SDS011;4750;49.506;10.400;2022-08-03T07:40:32;2.03;;;1.60;;
9422;SDS011;4750;49.506;10.400;2022-08-03T07:43:17;2.67;;;1.70;;
9422;SDS011;4750;49.506;10.400;2022-08-03T07:46:01;1.80;;;1.70;;
9422;SDS011;4750;49.506;10.400;2022-08-03T07:48:45;2.40;;;1.70;;
9422;SDS011;4750;49.506;10.400;2022-08-03T07:51:29;2.67;;;1.70;;
9422;SDS011;4750;49.506;10.400;2022-08-03T07:54:13;2.10;;;1.70;;
9422;SDS011;4750;49.506;10.400;2022-08-03T07:56:57;2.97;;;1.90;;
9422;SDS011;4750;49.506;10.400;2022-08-03T07:59:41;1.97;;;1.77;;
9422;SDS011;4750;49.506;10.400;2022-08-03T08:02:25;3.17;;;1.70;;
9422;SDS011;4750;49.506;10.400;2022-08-03T08:05:09;1.80;;;1.70;;
9422;SDS011;4750;49.506;10.400;2022-08-03T08:07:53;3.30;;;2.10;;
9422;SDS011;4750;49.506;10.400;2022-08-03T08:10:38;3.53;;;1.70;;
9422;SDS011;4750;49.506;10.400;2022-08-03T08:13:22;2.13;;;1.50;;
9422;SDS011;4750;49.506;10.400;2022-08-03T08:16:06;3.77;;;1.90;;
9422;SDS011;4750;49.506;10.400;2022-08-03T08:18:50;2.20;;;2.00;;
9422;SDS011;4750;49.506;10.400;2022-08-03T08:21:34;1.97;;;1.80;;
9422;SDS011;4750;49.506;10.400;2022-08-03T08:24:18;2.27;;;1.57;;
9422;SDS011;4750;49.506;10.400;2022-08-03T08:27:02;2.53;;;1.60;;
9422;SDS011;4750;49.506;10.400;2022-08-03T08:29:46;3.70;;;1.70;;
9422;SDS011;4750;49.506;10.400;2022-08-03T08:32:30;3.40;;;1.60;;
9422;SDS011;4750;49.506;10.400;2022-08-03T08:35:15;1.60;;;1.50;;
9422;SDS011;4750;49.506;10.400;2022-08-03T08:38:00;1.60;;;1.50;;
9422;SDS011;4750;49.506;10.400;2022-08-03T08:40:44;3.25;;;1.63;;
9422;SDS011;4750;49.506;10.400;2022-08-03T08:43:28;2.17;;;1.70;;
9422;SDS011;4750;49.506;10.400;2022-08-03T08:46:13;1.60;;;1.50;;
9422;SDS011;4750;49.506;10.400;2022-08-03T08:48:58;4.10;;;1.73;;
9422;SDS011;4750;49.506;10.400;2022-08-03T08:51:43;2.40;;;1.77;;
9422;SDS011;4750;49.506;10.400;2022-08-03T08:54:30;7.38;;;1.92;;
9422;SDS011;4750;49.506;10.400;2022-08-03T08:57:16;4.70;;;1.83;;
9422;SDS011;4750;49.506;10.400;2022-08-03T09:00:00;3.97;;;1.90;;
9422;SDS011;4750;49.506;10.400;2022-08-03T09:02:45;1.63;;;1.53;;
9422;SDS011;4750;49.506;10.400;2022-08-03T09:05:29;2.43;;;1.70;;
9422;SDS011;4750;49.506;10.400;2022-08-03T09:08:16;3.47;;;1.57;;
9422;SDS011;4750;49.506;10.400;2022-08-03T09:11:00;2.67;;;1.50;;
9422;SDS011;4750;49.506;10.400;2022-08-03T09:13:44;1.97;;;1.80;;
9422;SDS011;4750;49.506;10.400;2022-08-03T09:16:28;2.53;;;1.57;;
9422;SDS011;4750;49.506;10.400;2022-08-03T09:19:12;1.90;;;1.80;;
9422;SDS011;4750;49.506;10.400;2022-08-03T09:22:11;4.80;;;1.67;;
9422;SDS011;4750;49.506;10.400;2022-08-03T09:25:03;1.47;;;1.37;;
9422;SDS011;4750;49.506;10.400;2022-08-03T09:27:50;5.30;;;1.80;;
9422;SDS011;4750;49.506;10.400;2022-08-03T09:30:34;3.67;;;1.60;;
9422;SDS011;4750;49.506;10.400;2022-08-03T09:33:19;1.48;;;1.38;;
9422;SDS011;4750;49.506;10.400;2022-08-03T09:36:04;1.60;;;1.50;;
9422;SDS011;4750;49.506;10.400;2022-08-03T09:39:22;3.20;;;1.70;;
9422;SDS011;4750;49.506;10.400;2022-08-03T09:42:06;2.25;;;1.45;;
9422;SDS011;4750;49.506;10.400;2022-08-03T09:44:52;1.55;;;1.45;;
9422;SDS011;4750;49.506;10.400;2022-08-03T09:47:36;3.30;;;1.63;;
9422;SDS011;4750;49.506;10.400;2022-08-03T09:50:20;1.55;;;1.45;;
9422;SDS011;4750;49.506;10.400;2022-08-03T09:53:04;2.28;;;1.45;;
9422;SDS011;4750;49.506;10.400;2022-08-03T09:58:43;1.50;;;1.40;;
9422;SDS011;4750;49.506;10.400;2022-08-03T10:01:32;1.65;;;1.55;;
9422;SDS011;4750;49.506;10.400;2022-08-03T10:04:17;1.40;;;1.30;;
9422;SDS011;4750;49.506;10.400;2022-08-03T10:09:52;1.52;;;1.42;;
9422;SDS011;4750;49.506;10.400;2022-08-03T10:12:37;4.95;;;1.55;;
9422;SDS011;4750;49.506;10.400;2022-08-03T10:15:22;1.67;;;1.58;;
9422;SDS011;4750;49.506;10.400;2022-08-03T10:18:06;4.75;;;1.52;;
9422;SDS011;4750;49.506;10.400;2022-08-03T10:20:51;1.67;;;1.38;;
9422;SDS011;4750;49.506;10.400;2022-08-03T10:23:38;4.15;;;1.55;;
9422;SDS011;4750;49.506;10.400;2022-08-03T10:26:24;1.70;;;1.60;;
9422;SDS011;4750;49.506;10.400;2022-08-03T10:29:11;2.88;;;1.50;;
9422;SDS011;4750;49.506;10.400;2022-08-03T10:32:00;2.22;;;1.50;;
9422;SDS011;4750;49.506;10.400;2022-08-03T10:34:51;2.78;;;1.48;;
9422;SDS011;4750;49.506;10.400;2022-08-03T10:37:43;1.55;;;1.45;;
9422;SDS011;4750;49.506;10.400;2022-08-03T10:40:32;1.50;;;1.33;;
9422;SDS011;4750;49.506;10.400;2022-08-03T10:43:20;1.60;;;1.40;;
9422;SDS011;4750;49.506;10.400;2022-08-03T10:46:08;2.55;;;1.50;;
9422;SDS011;4750;49.506;10.400;2022-08-03T10:48:52;1.92;;;1.60;;
9422;SDS011;4750;49.506;10.400;2022-08-03T10:51:39;2.15;;;1.42;;
9422;SDS011;4750;49.506;10.400;2022-08-03T10:57:41;2.75;;;1.70;;
9422;SDS011;4750;49.506;10.400;2022-08-03T11:00:29;2.42;;;1.65;;
9422;SDS011;4750;49.506;10.400;2022-08-03T11:03:32;1.50;;;1.40;;
9422;SDS011;4750;49.506;10.400;2022-08-03T11:06:23;2.00;;;1.60;;
9422;SDS011;4750;49.506;10.400;2022-08-03T11:11:52;1.25;;;1.25;;
9422;SDS011;4750;49.506;10.400;2022-08-03T11:14:47;1.50;;;1.40;;
9422;SDS011;4750;49.506;10.400;2022-08-03T11:17:32;1.25;;;1.15;;
9422;SDS011;4750;49.506;10.400;2022-08-03T11:20:16;1.38;;;1.20;;
9422;SDS011;4750;49.506;10.400;2022-08-03T11:23:46;2.72;;;1.58;;
9422;SDS011;4750;49.506;10.400;2022-08-03T11:26:34;1.90;;;1.40;;
9422;SDS011;4750;49.506;10.400;2022-08-03T11:29:28;1.50;;;1.40;;
9422;SDS011;4750;49.506;10.400;2022-08-03T11:32:31;2.35;;;1.30;;
9422;SDS011;4750;49.506;10.400;2022-08-03T11:35:32;1.50;;;1.30;;
9422;SDS011;4750;49.506;10.400;2022-08-03T11:38:18;1.95;;;1.33;;
9422;SDS011;4750;49.506;10.400;2022-08-03T11:41:10;1.63;;;1.45;;
9422;SDS011;4750;49.506;10.400;2022-08-03T11:44:38;3.75;;;1.52;;
9422;SDS011;4750;49.506;10.400;2022-08-03T11:47:24;3.85;;;1.42;;
9422;SDS011;4750;49.506;10.400;2022-08-03T11:50:10;1.20;;;1.20;;
9422;SDS011;4750;49.506;10.400;2022-08-03T11:52:54;1.23;;;1.13;;
9422;SDS011;4750;49.506;10.400;2022-08-03T11:55:38;1.75;;;1.20;;
9422;SDS011;4750;49.506;10.400;2022-08-03T11:58:24;2.15;;;1.20;;
9422;SDS011;4750;49.506;10.400;2022-08-03T12:01:08;4.07;;;1.40;;
9422;SDS011;4750;49.506;10.400;2022-08-03T12:03:54;1.40;;;1.30;;
9422;SDS011;4750;49.506;10.400;2022-08-03T12:06:59;1.40;;;1.30;;
9422;SDS011;4750;49.506;10.400;2022-08-03T12:12:55;2.00;;;1.10;;
9422;SDS011;4750;49.506;10.400;2022-08-03T12:15:40;1.25;;;1.17;;
9422;SDS011;4750;49.506;10.400;2022-08-03T12:18:25;1.10;;;1.10;;
9422;SDS011;4750;49.506;10.400;2022-08-03T12:21:09;1.75;;;1.20;;
9422;SDS011;4750;49.506;10.400;2022-08-03T12:24:02;1.52;;;1.15;;
9422;SDS011;4750;49.506;10.400;2022-08-03T12:26:48;1.73;;;1.00;;
9422;SDS011;4750;49.506;10.400;2022-08-03T12:29:33;1.20;;;1.10;;
9422;SDS011;4750;49.506;10.400;2022-08-03T12:32:18;1.10;;;1.10;;
9422;SDS011;4750;49.506;10.400;2022-08-03T12:35:02;2.45;;;1.20;;
9422;SDS011;4750;49.506;10.400;2022-08-03T12:37:48;3.00;;;1.30;;
9422;SDS011;4750;49.506;10.400;2022-08-03T12:40:33;1.73;;;1.20;;
9422;SDS011;4750;49.506;10.400;2022-08-03T12:43:17;3.00;;;1.50;;
9422;SDS011;4750;49.506;10.400;2022-08-03T12:46:11;1.13;;;1.13;;
9422;SDS011;4750;49.506;10.400;2022-08-03T12:48:58;2.60;;;1.30;;
9422;SDS011;4750;49.506;10.400;2022-08-03T12:54:27;1.50;;;1.30;;
9422;SDS011;4750;49.506;10.400;2022-08-03T12:57:14;2.20;;;1.38;;
9422;SDS011;4750;49.506;10.400;2022-08-03T12:59:58;1.35;;;1.15;;
9422;SDS011;4750;49.506;10.400;2022-08-03T13:03:00;3.65;;;1.30;;
9422;SDS011;4750;49.506;10.400;2022-08-03T13:05:45;1.05;;;1.05;;
9422;SDS011;4750;49.506;10.400;2022-08-03T13:08:29;1.00;;;1.00;;
9422;SDS011;4750;49.506;10.400;2022-08-03T13:11:17;1.35;;;1.25;;
9422;SDS011;4750;49.506;10.400;2022-08-03T13:14:01;1.50;;;1.40;;
9422;SDS011;4750;49.506;10.400;2022-08-03T13:16:45;2.60;;;1.30;;
9422;SDS011;4750;49.506;10.400;2022-08-03T13:19:34;1.95;;;1.25;;
9422;SDS011;4750;49.506;10.400;2022-08-03T13:22:20;1.27;;;1.17;;
9422;SDS011;4750;49.506;10.400;2022-08-03T13:25:06;2.45;;;1.17;;
9422;SDS011;4750;49.506;10.400;2022-08-03T13:27:50;3.10;;;1.20;;
9422;SDS011;4750;49.506;10.400;2022-08-03T13:30:35;1.95;;;1.30;;
9422;SDS011;4750;49.506;10.400;2022-08-03T13:33:19;0.90;;;0.90;;
9422;SDS011;4750;49.506;10.400;2022-08-03T13:36:03;0.95;;;0.95;;
9422;SDS011;4750;49.506;10.400;2022-08-03T13:38:47;3.80;;;1.33;;
9422;SDS011;4750;49.506;10.400;2022-08-03T13:41:31;1.33;;;1.20;;
9422;SDS011;4750;49.506;10.400;2022-08-03T13:44:15;1.00;;;1.00;;
9422;SDS011;4750;49.506;10.400;2022-08-03T13:46:59;2.58;;;1.10;;
9422;SDS011;4750;49.506;10.400;2022-08-03T13:49:43;1.48;;;1.00;;
9422;SDS011;4750;49.506;10.400;2022-08-03T13:52:33;1.20;;;1.10;;
9422;SDS011;4750;49.506;10.400;2022-08-03T13:55:18;1.65;;;1.10;;
9422;SDS011;4750;49.506;10.400;2022-08-03T13:58:02;0.98;;;0.98;;
9422;SDS011;4750;49.506;10.400;2022-08-03T14:00:46;1.30;;;1.20;;
9422;SDS011;4750;49.506;10.400;2022-08-03T14:03:30;1.40;;;1.15;;
9422;SDS011;4750;49.506;10.400;2022-08-03T14:06:14;1.25;;;1.15;;
9422;SDS011;4750;49.506;10.400;2022-08-03T14:08:58;0.93;;;0.90;;
9422;SDS011;4750;49.506;10.400;2022-08-03T14:11:42;1.25;;;1.15;;
9422;SDS011;4750;49.506;10.400;2022-08-03T14:14:27;1.33;;;1.00;;
9422;SDS011;4750;49.506;10.400;2022-08-03T14:17:11;1.30;;;1.15;;
9422;SDS011;4750;49.506;10.400;2022-08-03T14:19:55;1.08;;;0.90;;
9422;SDS011;4750;49.506;10.400;2022-08-03T14:22:39;1.08;;;1.02;;
9422;SDS011;4750;49.506;10.400;2022-08-03T14:25:23;0.93;;;0.93;;
9422;SDS011;4750;49.506;10.400;2022-08-03T14:28:07;1.30;;;1.00;;
9422;SDS011;4750;49.506;10.400;2022-08-03T14:30:51;1.20;;;1.20;;
9422;SDS011;4750;49.506;10.400;2022-08-03T14:33:36;2.03;;;1.13;;
9422;SDS011;4750;49.506;10.400;2022-08-03T14:36:21;3.67;;;1.30;;
9422;SDS011;4750;49.506;10.400;2022-08-03T14:39:05;2.05;;;1.10;;
9422;SDS011;4750;49.506;10.400;2022-08-03T14:41:49;1.10;;;1.00;;
9422;SDS011;4750;49.506;10.400;2022-08-03T14:44:33;1.10;;;1.00;;
9422;SDS011;4750;49.506;10.400;2022-08-03T14:47:17;1.75;;;1.02;;
9422;SDS011;4750;49.506;10.400;2022-08-03T14:50:01;1.13;;;1.00;;
9422;SDS011;4750;49.506;10.400;2022-08-03T14:52:47;3.47;;;1.13;;
9422;SDS011;4750;49.506;10.400;2022-08-03T14:55:31;1.05;;;1.00;;
9422;SDS011;4750;49.506;10.400;2022-08-03T14:58:15;1.33;;;1.20;;
9422;SDS011;4750;49.506;10.400;2022-08-03T15:00:59;1.00;;;1.00;;
9422;SDS011;4750;49.506;10.400;2022-08-03T15:03:43;1.00;;;0.90;;
9422;SDS011;4750;49.506;10.400;2022-08-03T15:06:29;1.05;;;1.05;;
9422;SDS011;4750;49.506;10.400;2022-08-03T15:09:13;0.80;;;0.80;;
9422;SDS011;4750;49.506;10.400;2022-08-03T15:11:57;1.75;;;1.10;;
9422;SDS011;4750;49.506;10.400;2022-08-03T15:14:42;0.80;;;0.80;;
9422;SDS011;4750;49.506;10.400;2022-08-03T15:17:26;0.95;;;0.95;;
9422;SDS011;4750;49.506;10.400;2022-08-03T15:20:10;1.02;;;1.00;;
9422;SDS011;4750;49.506;10.400;2022-08-03T15:22:54;1.27;;;0.98;;
9422;SDS011;4750;49.506;10.400;2022-08-03T15:25:38;1.63;;;1.00;;
9422;SDS011;4750;49.506;10.400;2022-08-03T15:28:22;1.00;;;1.00;;
9422;SDS011;4750;49.506;10.400;2022-08-03T15:31:06;1.40;;;1.15;;
9422;SDS011;4750;49.506;10.400;2022-08-03T15:33:50;1.45;;;0.88;;
9422;SDS011;4750;49.506;10.400;2022-08-03T15:36:34;1.25;;;0.93;;
9422;SDS011;4750;49.506;10.400;2022-08-03T15:39:18;1.08;;;1.00;;
9422;SDS011;4750;49.506;10.400;2022-08-03T15:42:02;1.60;;;0.90;;
9422;SDS011;4750;49.506;10.400;2022-08-03T15:44:46;2.88;;;1.02;;
9422;SDS011;4750;49.506;10.400;2022-08-03T15:47:30;0.90;;;0.75;;
9422;SDS011;4750;49.506;10.400;2022-08-03T15:50:14;1.58;;;1.00;;
9422;SDS011;4750;49.506;10.400;2022-08-03T15:52:58;0.90;;;0.90;;
9422;SDS011;4750;49.506;10.400;2022-08-03T15:55:42;0.85;;;0.85;;
9422;SDS011;4750;49.506;10.400;2022-08-03T15:58:29;0.85;;;0.85;;
9422;SDS011;4750;49.506;10.400;2022-08-03T16:01:13;1.70;;;0.90;;
9422;SDS011;4750;49.506;10.400;2022-08-03T16:03:58;0.98;;;0.98;;
9422;SDS011;4750;49.506;10.400;2022-08-03T16:06:42;0.80;;;0.80;;
9422;SDS011;4750;49.506;10.400;2022-08-03T16:09:25;1.00;;;0.90;;
9422;SDS011;4750;49.506;10.400;2022-08-03T16:12:10;1.00;;;0.93;;
9422;SDS011;4750;49.506;10.400;2022-08-03T16:14:54;0.88;;;0.85;;
9422;SDS011;4750;49.506;10.400;2022-08-03T16:17:38;1.10;;;1.02;;
9422;SDS011;4750;49.506;10.400;2022-08-03T16:20:23;2.35;;;0.90;;
9422;SDS011;4750;49.506;10.400;2022-08-03T16:23:07;2.88;;;0.95;;
9422;SDS011;4750;49.506;10.400;2022-08-03T16:25:51;0.80;;;0.80;;
9422;SDS011;4750;49.506;10.400;2022-08-03T16:28:36;2.47;;;1.00;;
9422;SDS011;4750;49.506;10.400;2022-08-03T16:31:23;1.35;;;1.00;;
9422;SDS011;4750;49.506;10.400;2022-08-03T16:34:09;1.85;;;1.00;;
9422;SDS011;4750;49.506;10.400;2022-08-03T16:36:53;1.13;;;1.00;;
9422;SDS011;4750;49.506;10.400;2022-08-03T16:39:37;0.75;;;0.73;;
9422;SDS011;4750;49.506;10.400;2022-08-03T16:42:21;0.95;;;0.88;;
9422;SDS011;4750;49.506;10.400;2022-08-03T16:45:05;0.95;;;0.95;;
9422;SDS011;4750;49.506;10.400;2022-08-03T16:47:50;1.55;;;0.88;;
9422;SDS011;4750;49.506;10.400;2022-08-03T16:50:35;1.73;;;1.15;;
9422;SDS011;4750;49.506;10.400;2022-08-03T16:53:19;1.02;;;0.90;;
9422;SDS011;4750;49.506;10.400;2022-08-03T16:56:03;2.22;;;1.10;;
9422;SDS011;4750;49.506;10.400;2022-08-03T16:58:47;1.60;;;1.08;;
9422;SDS011;4750;49.506;10.400;2022-08-03T17:01:31;0.77;;;0.77;;
9422;SDS011;4750;49.506;10.400;2022-08-03T17:04:16;1.20;;;0.90;;
9422;SDS011;4750;49.506;10.400;2022-08-03T17:07:00;1.10;;;1.00;;
9422;SDS011;4750;49.506;10.400;2022-08-03T17:09:45;1.13;;;1.08;;
9422;SDS011;4750;49.506;10.400;2022-08-03T17:12:30;0.80;;;0.80;;
9422;SDS011;4750;49.506;10.400;2022-08-03T17:15:14;0.80;;;0.80;;
9422;SDS011;4750;49.506;10.400;2022-08-03T17:18:03;2.15;;;0.90;;
9422;SDS011;4750;49.506;10.400;2022-08-03T17:20:50;1.92;;;0.93;;
9422;SDS011;4750;49.506;10.400;2022-08-03T17:26:40;1.30;;;0.90;;
9422;SDS011;4750;49.506;10.400;2022-08-03T17:29:26;1.55;;;0.95;;
9422;SDS011;4750;49.506;10.400;2022-08-03T17:32:10;1.15;;;1.00;;
9422;SDS011;4750;49.506;10.400;2022-08-03T17:34:57;1.05;;;0.98;;